createdAt,value
2018-08-18T00:00:33.283Z,20.30
2018-08-18T00:03:02.351Z,20.23
2018-08-18T00:05:31.512Z,20.14
2018-08-18T00:08:00.734Z,20.10
2018-08-18T00:10:30.052Z,20.27
2018-08-18T00:12:59.402Z,20.29
2018-08-18T00:15:28.603Z,20.49
2018-08-18T00:21:12.316Z,21.26
2018-08-18T00:23:46.435Z,21.38
2018-08-18T00:26:15.555Z,21.50
2018-08-18T00:28:45.184Z,21.46
2018-08-18T00:31:14.259Z,21.52
2018-08-18T00:33:43.201Z,21.55
2018-08-18T00:36:12.444Z,21.34
2018-08-18T00:38:41.485Z,20.99
2018-08-18T00:41:10.515Z,20.82
2018-08-18T00:43:39.538Z,20.46
2018-08-18T00:46:08.716Z,20.10
2018-08-18T00:48:37.708Z,19.79
2018-08-18T00:51:06.770Z,19.55
2018-08-18T00:53:35.971Z,19.42
2018-08-18T00:56:06.171Z,19.54
2018-08-18T00:58:35.251Z,19.94
2018-08-18T01:01:05.774Z,20.04
2018-08-18T01:03:42.809Z,20.04
2018-08-18T01:06:17.673Z,19.99
2018-08-18T01:09:06.431Z,19.67
2018-08-18T01:11:36.969Z,19.41
2018-08-18T01:14:16.865Z,19.36
2018-08-18T01:16:52.943Z,19.38
2018-08-18T01:19:23.210Z,19.47
2018-08-18T01:22:30.475Z,19.59
2018-08-18T01:25:07.318Z,19.55
2018-08-18T01:27:47.445Z,19.46
2018-08-18T01:30:19.965Z,19.51
2018-08-18T01:32:49.155Z,19.52
2018-08-18T01:35:32.237Z,19.63
2018-08-18T01:38:01.563Z,19.57
2018-08-18T01:40:30.956Z,19.54
2018-08-18T01:43:00.111Z,19.47
2018-08-18T01:45:29.411Z,19.41
2018-08-18T01:47:58.546Z,19.37
2018-08-18T01:50:27.609Z,19.33
2018-08-18T01:52:56.771Z,19.31
2018-08-18T01:55:25.841Z,19.40
2018-08-18T01:57:54.838Z,19.37
2018-08-18T02:00:25.823Z,19.30
2018-08-18T02:02:55.004Z,19.24
2018-08-18T02:05:24.332Z,19.18
2018-08-18T02:07:53.571Z,19.09
2018-08-18T02:10:22.776Z,19.18
2018-08-18T02:13:02.573Z,19.20
2018-08-18T02:15:57.267Z,19.08
2018-08-18T02:18:28.079Z,19.14
2018-08-18T02:20:57.199Z,19.08
2018-08-18T02:23:28.025Z,19.00
2018-08-18T02:25:57.181Z,18.92
2018-08-18T02:28:30.252Z,18.89
2018-08-18T02:31:04.345Z,18.87
2018-08-18T02:33:33.382Z,18.85
2018-08-18T02:36:02.529Z,18.87
2018-08-18T02:38:31.720Z,18.79
2018-08-18T02:41:00.746Z,18.73
2018-08-18T02:43:37.741Z,18.71
2018-08-18T02:46:18.479Z,18.77
2018-08-18T02:48:48.911Z,18.89
2018-08-18T02:51:17.861Z,19.02
2018-08-18T02:53:48.180Z,18.97
2018-08-18T02:56:17.287Z,18.90
2018-08-18T02:58:53.779Z,18.86
2018-08-18T03:01:26.880Z,19.00
2018-08-18T03:03:56.927Z,18.99
2018-08-18T03:06:26.071Z,19.05
2018-08-18T03:08:55.413Z,19.01
2018-08-18T03:11:24.511Z,18.90
2018-08-18T03:13:53.631Z,18.85
2018-08-18T03:16:22.918Z,18.87
2018-08-18T03:18:53.349Z,18.79
2018-08-18T03:21:29.193Z,18.68
2018-08-18T03:24:06.867Z,18.67
2018-08-18T03:27:09.077Z,18.73
2018-08-18T03:29:52.463Z,18.79
2018-08-18T03:32:22.650Z,18.74
2018-08-18T03:34:51.651Z,18.77
2018-08-18T03:37:29.128Z,18.74
2018-08-18T03:39:58.440Z,18.92
2018-08-18T03:42:32.531Z,18.92
2018-08-18T03:45:01.670Z,18.81
2018-08-18T03:47:30.756Z,18.72
2018-08-18T03:50:00.031Z,18.68
2018-08-18T03:52:29.247Z,18.74
2018-08-18T03:54:58.177Z,18.78
2018-08-18T03:58:02.219Z,18.67
2018-08-18T04:00:31.377Z,18.54
2018-08-18T04:03:00.354Z,18.51
2018-08-18T04:05:29.635Z,18.55
2018-08-18T04:07:58.859Z,18.59
2018-08-18T04:10:28.107Z,18.45
2018-08-18T04:12:58.490Z,18.27
2018-08-18T04:15:27.658Z,18.15
2018-08-18T04:17:57.091Z,18.18
2018-08-18T04:20:26.111Z,18.24
2018-08-18T04:22:55.125Z,18.34
2018-08-18T04:25:24.365Z,18.33
2018-08-18T04:27:53.377Z,18.41
2018-08-18T04:30:22.925Z,18.47
2018-08-18T04:33:01.092Z,18.50
2018-08-18T04:35:31.032Z,18.56
2018-08-18T04:38:01.217Z,18.67
2018-08-18T04:40:30.349Z,19.02
2018-08-18T04:43:00.636Z,19.09
2018-08-18T04:45:29.698Z,19.15
2018-08-18T04:47:58.732Z,19.27
2018-08-18T04:50:27.956Z,19.43
2018-08-18T04:52:56.948Z,19.60
2018-08-18T04:55:25.964Z,19.71
2018-08-18T04:57:54.949Z,19.80
2018-08-18T05:00:24.059Z,19.92
2018-08-18T05:02:58.014Z,20.15
2018-08-18T05:05:28.459Z,20.25
2018-08-18T05:07:59.734Z,20.43
2018-08-18T05:10:29.077Z,20.52
2018-08-18T05:12:58.194Z,20.64
2018-08-18T05:15:27.393Z,20.81
2018-08-18T05:17:56.471Z,21.03
2018-08-18T05:20:26.626Z,21.26
2018-08-18T05:22:57.998Z,21.48
2018-08-18T05:25:37.083Z,21.67
2018-08-18T05:28:06.219Z,22.04
2018-08-18T05:30:35.448Z,22.41
2018-08-18T05:33:04.603Z,22.74
2018-08-18T05:35:33.739Z,22.86
2018-08-18T05:38:03.079Z,23.00
2018-08-18T05:40:33.527Z,23.10
2018-08-18T05:43:03.122Z,23.14
2018-08-18T05:45:34.159Z,23.39
2018-08-18T05:48:03.397Z,23.32
2018-08-18T05:50:32.633Z,23.39
2018-08-18T06:00:21.913Z,24.55
2018-08-18T06:02:56.843Z,24.20
2018-08-18T06:05:29.987Z,24.32
2018-08-18T06:08:00.423Z,24.74
2018-08-18T06:10:29.721Z,24.65
2018-08-18T06:13:05.690Z,24.79
2018-08-18T06:15:35.021Z,24.54
2018-08-18T06:18:04.313Z,24.90
2018-08-18T06:20:33.438Z,25.28
2018-08-18T06:23:02.684Z,25.74
2018-08-18T06:25:31.671Z,26.23
2018-08-18T06:28:02.574Z,26.42
2018-08-18T06:30:31.768Z,26.73
2018-08-18T06:33:00.797Z,26.37
2018-08-18T06:35:29.915Z,26.36
2018-08-18T06:38:01.487Z,26.74
2018-08-18T06:40:30.984Z,26.94
2018-08-18T06:43:00.150Z,27.07
2018-08-18T06:45:29.157Z,27.50
2018-08-18T06:48:32.438Z,27.77
2018-08-18T06:51:01.478Z,27.88
2018-08-18T06:53:48.200Z,28.09
2018-08-18T06:56:17.570Z,28.51
2018-08-18T06:58:47.460Z,28.53
2018-08-18T07:01:16.567Z,29.11
2018-08-18T07:03:47.476Z,29.13
2018-08-18T07:06:17.796Z,29.26
2018-08-18T07:08:55.457Z,29.21
2018-08-18T07:11:26.978Z,29.01
2018-08-18T07:13:56.829Z,29.19
2018-08-18T07:16:26.212Z,29.56
2018-08-18T07:18:59.395Z,30.22
2018-08-18T07:21:28.635Z,29.97
2018-08-18T07:23:57.683Z,29.60
2018-08-18T07:26:26.999Z,29.89
2018-08-18T07:28:57.870Z,29.32
2018-08-18T07:31:27.455Z,29.89
2018-08-18T07:33:56.905Z,29.67
2018-08-18T07:36:27.351Z,29.43
2018-08-18T07:38:56.775Z,30.29
2018-08-18T07:41:26.670Z,30.97
2018-08-18T07:43:56.000Z,30.59
2018-08-18T07:46:38.369Z,31.17
2018-08-18T07:49:41.660Z,31.51
2018-08-18T07:58:28.975Z,32.88
2018-08-18T08:00:59.563Z,33.12
2018-08-18T08:03:28.613Z,33.29
2018-08-18T08:05:57.679Z,33.45
2018-08-18T08:08:36.412Z,33.75
2018-08-18T08:11:12.709Z,33.86
2018-08-18T08:13:41.932Z,34.14
2018-08-18T08:16:10.978Z,33.99
2018-08-18T08:18:39.983Z,33.35
2018-08-18T08:21:09.241Z,33.47
2018-08-18T08:23:38.981Z,33.67
2018-08-18T08:26:08.117Z,34.15
2018-08-18T08:28:37.433Z,34.01
2018-08-18T08:31:06.558Z,34.13
2018-08-18T08:33:39.239Z,33.46
2018-08-18T08:36:08.864Z,33.25
2018-08-18T08:38:54.509Z,32.93
2018-08-18T08:41:26.873Z,33.70
2018-08-18T08:43:56.028Z,34.07
2018-08-18T08:46:26.178Z,34.04
2018-08-18T08:48:58.905Z,34.03
2018-08-18T08:51:30.097Z,33.98
2018-08-18T08:54:00.539Z,33.94
2018-08-18T08:56:34.579Z,34.10
2018-08-18T08:59:03.972Z,32.53
2018-08-18T09:01:33.154Z,32.93
2018-08-18T09:04:02.501Z,33.46
2018-08-18T09:06:33.770Z,33.77
2018-08-18T09:09:02.748Z,34.53
2018-08-18T09:11:31.912Z,34.72
2018-08-18T09:14:03.484Z,34.61
2018-08-18T09:16:33.525Z,34.88
2018-08-18T09:19:02.888Z,34.00
2018-08-18T09:22:37.396Z,33.13
2018-08-18T09:25:11.596Z,33.76
2018-08-18T09:27:44.679Z,34.03
2018-08-18T09:30:14.073Z,35.03
2018-08-18T09:32:43.233Z,35.19
2018-08-18T09:35:13.236Z,35.33
2018-08-18T09:37:45.678Z,35.68
2018-08-18T09:40:19.246Z,35.52
2018-08-18T09:43:07.689Z,35.48
2018-08-18T09:45:37.000Z,35.43
2018-08-18T09:48:06.384Z,34.81
2018-08-18T09:50:41.822Z,34.67
2018-08-18T09:53:10.925Z,34.11
2018-08-18T09:55:40.003Z,34.88
2018-08-18T09:58:09.719Z,34.69
2018-08-18T10:00:40.213Z,35.47
2018-08-18T10:03:10.307Z,35.72
2018-08-18T10:05:39.805Z,35.09
2018-08-18T10:08:09.447Z,35.72
2018-08-18T10:10:38.706Z,35.77
2018-08-18T10:13:08.083Z,35.74
2018-08-18T10:15:37.205Z,36.44
2018-08-18T10:18:06.408Z,36.37
2018-08-18T10:20:51.813Z,36.49
2018-08-18T10:23:21.306Z,36.90
2018-08-18T10:25:50.398Z,36.35
2018-08-18T10:28:19.905Z,35.75
2018-08-18T10:30:49.054Z,35.63
2018-08-18T10:33:18.117Z,35.75
2018-08-18T10:35:47.916Z,35.31
2018-08-18T10:38:17.205Z,35.76
2018-08-18T10:40:46.888Z,35.99
2018-08-18T10:43:21.946Z,34.22
2018-08-18T10:45:53.909Z,34.22
2018-08-18T10:48:39.779Z,32.69
2018-08-18T10:51:29.326Z,32.49
2018-08-18T10:53:59.807Z,33.65
2018-08-18T10:56:29.056Z,34.09
2018-08-18T10:59:14.689Z,33.22
2018-08-18T11:02:14.693Z,34.50
2018-08-18T11:04:43.756Z,36.06
2018-08-18T11:07:14.265Z,37.24
2018-08-18T11:09:43.279Z,36.96
2018-08-18T11:12:12.498Z,35.38
2018-08-18T11:14:43.881Z,34.63
2018-08-18T11:17:25.521Z,33.53
2018-08-18T11:19:57.065Z,33.59
2018-08-18T11:23:33.001Z,32.76
2018-08-18T11:26:02.125Z,31.45
2018-08-18T11:28:31.301Z,31.05
2018-08-18T11:31:00.415Z,30.89
2018-08-18T11:33:43.773Z,30.86
2018-08-18T11:36:13.197Z,30.89
2018-08-18T11:38:42.165Z,30.81
2018-08-18T11:41:11.400Z,30.83
2018-08-18T11:43:46.026Z,30.58
2018-08-18T11:46:15.166Z,30.61
2018-08-18T11:48:44.202Z,30.87
2018-08-18T11:51:13.278Z,31.12
2018-08-18T11:53:54.241Z,31.85
2018-08-18T11:56:23.362Z,32.31
2018-08-18T11:59:03.258Z,32.35
2018-08-18T12:01:37.728Z,32.05
2018-08-18T12:04:07.011Z,32.01
2018-08-18T12:06:42.188Z,32.58
2018-08-18T12:09:11.721Z,32.50
2018-08-18T12:11:41.017Z,32.13
2018-08-18T12:14:10.321Z,31.22
2018-08-18T12:16:40.226Z,29.89
2018-08-18T12:19:09.627Z,29.04
2018-08-18T12:21:43.653Z,28.66
2018-08-18T12:24:20.465Z,28.80
2018-08-18T12:27:00.567Z,28.94
2018-08-18T12:29:31.448Z,28.89
2018-08-18T12:32:00.563Z,28.93
2018-08-18T12:34:29.795Z,28.70
2018-08-18T12:36:59.096Z,28.56
2018-08-18T12:39:28.179Z,28.53
2018-08-18T12:41:57.298Z,28.55
2018-08-18T12:44:31.224Z,28.62
2018-08-18T12:47:02.578Z,28.87
2018-08-18T12:49:32.309Z,30.07
2018-08-18T12:52:01.538Z,30.70
2018-08-18T12:54:30.619Z,31.50
2018-08-18T12:57:00.292Z,32.26
2018-08-18T12:59:30.406Z,32.08
2018-08-18T13:01:59.638Z,32.21
2018-08-18T13:04:28.961Z,31.51
2018-08-18T13:06:58.170Z,31.91
2018-08-18T13:09:28.341Z,32.49
2018-08-18T13:12:02.024Z,32.83
2018-08-18T13:14:32.150Z,32.92
2018-08-18T13:17:01.376Z,33.62
2018-08-18T13:19:32.595Z,34.15
2018-08-18T13:22:02.432Z,33.76
2018-08-18T13:24:32.457Z,34.02
2018-08-18T13:27:02.786Z,34.14
2018-08-18T13:29:32.927Z,34.49
2018-08-18T13:32:02.181Z,34.13
2018-08-18T13:34:31.504Z,34.62
2018-08-18T13:37:05.337Z,33.93
2018-08-18T13:39:35.030Z,32.78
2018-08-18T13:42:27.844Z,32.02
2018-08-18T13:44:56.937Z,32.18
2018-08-18T13:47:27.543Z,32.99
2018-08-18T13:50:02.430Z,33.05
2018-08-18T13:52:35.547Z,33.57
2018-08-18T13:55:06.640Z,33.96
2018-08-18T13:57:37.136Z,34.50
2018-08-18T14:00:11.438Z,34.84
2018-08-18T14:02:43.591Z,34.85
2018-08-18T14:05:18.749Z,35.04
2018-08-18T14:07:59.705Z,32.81
2018-08-18T14:10:28.849Z,30.40
2018-08-18T14:13:00.548Z,29.70
2018-08-18T14:15:30.012Z,29.65
2018-08-18T14:18:05.192Z,29.07
2018-08-18T14:20:44.937Z,28.72
2018-08-18T14:23:14.078Z,28.88
2018-08-18T14:25:46.596Z,29.24
2018-08-18T14:28:15.736Z,28.79
2018-08-18T14:43:41.378Z,26.17
2018-08-18T14:46:14.522Z,26.12
2018-08-18T14:48:43.504Z,26.30
2018-08-18T14:51:12.483Z,26.44
2018-08-18T14:53:43.364Z,26.18
2018-08-18T14:56:12.519Z,25.84
2018-08-18T14:58:45.050Z,25.97
2018-08-18T15:01:15.287Z,25.92
2018-08-18T15:03:44.512Z,25.87
2018-08-18T15:06:14.021Z,25.98
2018-08-18T15:08:43.171Z,26.10
2018-08-18T15:11:12.150Z,26.32
2018-08-18T15:13:41.157Z,26.44
2018-08-18T15:16:10.229Z,26.41
2018-08-18T15:18:40.323Z,26.33
2018-08-18T15:21:09.479Z,26.23
2018-08-18T15:23:38.941Z,26.23
2018-08-18T15:26:08.011Z,26.13
2018-08-18T15:28:37.831Z,26.12
2018-08-18T15:31:06.934Z,26.06
2018-08-18T15:33:35.919Z,25.39
2018-08-18T15:36:05.642Z,25.30
2018-08-18T15:38:45.786Z,25.25
2018-08-18T15:41:15.231Z,25.42
2018-08-18T15:43:44.518Z,25.67
2018-08-18T15:46:13.471Z,25.69
2018-08-18T15:48:42.884Z,25.84
2018-08-18T15:51:11.858Z,25.94
2018-08-18T15:53:56.749Z,26.08
2018-08-18T15:56:26.791Z,26.17
2018-08-18T15:58:56.637Z,26.30
2018-08-18T16:01:27.268Z,26.33
2018-08-18T16:03:57.496Z,26.44
2018-08-18T16:06:26.820Z,26.40
2018-08-18T16:09:28.033Z,26.36
2018-08-18T16:11:57.030Z,26.33
2018-08-18T16:14:26.137Z,26.40
2018-08-18T16:17:01.164Z,26.42
2018-08-18T16:19:33.853Z,26.44
2018-08-18T16:22:03.682Z,26.39
2018-08-18T16:24:36.659Z,26.37
2018-08-18T16:27:08.515Z,26.34
2018-08-18T16:29:38.218Z,26.12
2018-08-18T16:32:15.748Z,26.03
2018-08-18T16:34:46.650Z,25.89
2018-08-18T16:37:16.102Z,25.78
2018-08-18T16:39:46.226Z,25.57
2018-08-18T16:42:15.456Z,25.44
2018-08-18T16:44:44.698Z,25.43
2018-08-18T16:47:13.822Z,25.34
2018-08-18T16:49:42.955Z,25.20
2018-08-18T16:52:12.025Z,25.08
2018-08-18T16:54:41.074Z,24.87
2018-08-18T16:57:10.135Z,24.56
2018-08-18T16:59:39.406Z,24.45
2018-08-18T17:02:18.468Z,24.45
2018-08-18T17:04:48.005Z,24.47
2018-08-18T17:07:23.802Z,24.53
2018-08-18T17:09:52.795Z,24.62
2018-08-18T17:12:23.320Z,24.57
2018-08-18T17:14:52.305Z,24.50
2018-08-18T17:17:26.303Z,24.52
2018-08-18T17:19:55.307Z,24.54
2018-08-18T17:22:24.261Z,24.85
2018-08-18T17:24:53.264Z,24.90
2018-08-18T17:27:23.938Z,24.77
2018-08-18T17:29:57.303Z,24.77
2018-08-18T17:32:27.702Z,24.72
2018-08-18T17:34:56.789Z,24.68
2018-08-18T17:37:25.844Z,24.68
2018-08-18T17:40:17.276Z,24.73
2018-08-18T17:42:47.070Z,24.65
2018-08-18T17:45:24.275Z,24.60
2018-08-18T17:47:53.643Z,24.80
2018-08-18T17:50:23.927Z,24.93
2018-08-18T17:53:03.458Z,25.15
2018-08-18T17:55:32.546Z,25.18
2018-08-18T17:58:01.891Z,25.16
2018-08-18T18:00:32.416Z,25.16
2018-08-18T18:03:02.661Z,25.11
2018-08-18T18:05:34.765Z,24.92
2018-08-18T18:08:05.416Z,24.77
2018-08-18T18:10:39.739Z,24.74
2018-08-18T18:13:17.007Z,24.66
2018-08-18T18:15:48.111Z,24.40
2018-08-18T18:18:19.780Z,24.21
2018-08-18T18:20:50.077Z,24.06
2018-08-18T18:23:20.196Z,23.92
2018-08-18T18:25:49.188Z,23.78
2018-08-18T18:28:18.302Z,23.64
2018-08-18T18:30:51.170Z,23.47
2018-08-18T18:33:20.318Z,23.32
2018-08-18T18:35:56.661Z,23.26
2018-08-18T18:38:25.786Z,23.12
2018-08-18T18:40:54.818Z,22.98
2018-08-18T18:43:24.414Z,22.89
2018-08-18T18:45:55.330Z,22.85
2018-08-18T18:48:24.396Z,22.85
2018-08-18T18:50:53.472Z,22.78
2018-08-18T18:53:52.881Z,22.67
2018-08-18T18:56:27.154Z,22.61
2018-08-18T18:58:56.368Z,22.62
2018-08-18T19:01:25.383Z,22.77
2018-08-18T19:03:54.489Z,22.87
2018-08-18T19:06:23.519Z,22.77
2018-08-18T19:09:01.117Z,22.64
2018-08-18T19:11:30.505Z,22.81
2018-08-18T19:13:59.776Z,22.85
2018-08-18T19:16:29.014Z,22.78
2018-08-18T19:19:14.194Z,22.69
2018-08-18T19:21:43.386Z,22.65
2018-08-18T19:24:29.702Z,22.51
2018-08-18T19:27:01.104Z,22.35
2018-08-18T19:29:30.608Z,22.22
2018-08-18T19:32:00.958Z,22.18
2018-08-18T19:34:30.163Z,22.09
2018-08-18T19:37:04.762Z,22.08
2018-08-18T19:39:36.042Z,21.95
2018-08-18T19:42:11.375Z,21.96
2018-08-18T19:44:43.000Z,21.88
2018-08-18T19:47:12.881Z,21.83
2018-08-18T19:49:45.649Z,21.80
2018-08-18T19:52:19.864Z,21.76
2018-08-18T19:54:58.007Z,21.83
2018-08-18T19:57:36.853Z,21.81
2018-08-18T20:00:26.956Z,21.82
2018-08-18T20:03:02.777Z,21.91
2018-08-18T20:08:43.187Z,21.83
2018-08-18T20:11:13.270Z,21.78
2018-08-18T20:13:42.488Z,21.73
2018-08-18T20:16:30.742Z,21.70
2018-08-18T20:19:17.489Z,21.70
2018-08-18T20:21:47.219Z,21.48
2018-08-18T20:24:16.308Z,21.24
2018-08-18T20:26:45.988Z,21.17
2018-08-18T20:29:15.746Z,21.17
2018-08-18T20:31:55.263Z,21.07
2018-08-18T20:34:27.031Z,21.33
2018-08-18T20:36:57.779Z,21.40
2018-08-18T20:39:30.011Z,21.37
2018-08-18T20:41:59.372Z,21.14
2018-08-18T20:44:49.865Z,20.96
2018-08-18T20:47:24.168Z,21.13
2018-08-18T20:52:45.214Z,21.26
2018-08-18T20:55:18.570Z,21.24
2018-08-18T20:57:49.914Z,21.12
2018-08-18T21:00:22.835Z,21.10
2018-08-18T21:02:51.927Z,21.00
2018-08-18T21:05:21.186Z,20.88
2018-08-18T21:07:50.982Z,20.78
2018-08-18T21:30:25.637Z,20.74
2018-08-18T21:32:59.041Z,20.64
2018-08-18T21:35:36.750Z,20.56
2018-08-18T21:38:06.000Z,20.55
2018-08-18T21:40:35.029Z,20.52
2018-08-18T21:43:04.901Z,20.49
2018-08-18T21:45:50.976Z,20.50
2018-08-18T21:48:20.175Z,20.73
2018-08-18T21:50:53.447Z,20.97
2018-08-18T21:53:22.568Z,20.97
2018-08-18T21:55:51.993Z,20.86
2018-08-18T21:58:21.087Z,20.78
2018-08-18T22:00:51.179Z,20.87
2018-08-18T22:03:21.130Z,21.14
2018-08-18T22:05:51.764Z,21.53
2018-08-18T22:08:33.968Z,21.83
2018-08-18T22:11:03.307Z,22.01
2018-08-18T22:13:54.247Z,22.06
2018-08-18T22:16:24.403Z,21.71
2018-08-18T22:18:58.871Z,21.35
2018-08-18T22:21:30.253Z,20.94
2018-08-18T22:24:01.498Z,20.51
2018-08-18T22:26:31.021Z,20.08
2018-08-18T22:29:05.961Z,19.87
2018-08-18T22:31:48.737Z,19.72
2018-08-18T22:34:23.677Z,19.61
2018-08-18T22:37:01.041Z,19.57
2018-08-18T22:39:30.767Z,19.51
2018-08-18T22:42:00.341Z,19.38
2018-08-18T22:44:29.908Z,19.30
2018-08-18T22:46:59.535Z,19.37
2018-08-18T22:49:28.846Z,19.53
2018-08-18T22:52:06.139Z,19.57
2018-08-18T22:54:51.982Z,19.68
2018-08-18T22:57:21.298Z,19.54
2018-08-18T22:59:51.030Z,19.47
2018-08-18T23:02:20.916Z,19.40
2018-08-18T23:04:50.946Z,19.38
2018-08-18T23:07:23.783Z,19.42
2018-08-18T23:09:53.718Z,19.45
2018-08-18T23:12:23.085Z,19.51
2018-08-18T23:14:53.382Z,19.57
2018-08-18T23:17:22.429Z,19.65
2018-08-18T23:19:52.276Z,19.72
2018-08-18T23:22:43.153Z,19.70
2018-08-18T23:25:16.240Z,19.65
2018-08-18T23:27:45.473Z,19.64
2018-08-18T23:30:19.689Z,19.62
2018-08-18T23:32:48.855Z,19.57
2018-08-18T23:35:24.266Z,19.53
2018-08-18T23:37:54.082Z,19.48
2018-08-18T23:40:23.521Z,19.50
2018-08-18T23:42:57.558Z,19.47
2018-08-18T23:45:36.568Z,19.40
2018-08-18T23:48:10.780Z,19.28
2018-08-18T23:50:42.030Z,19.18
2018-08-18T23:53:18.246Z,19.10
2018-08-18T23:55:55.106Z,19.12
2018-08-18T23:58:24.231Z,19.21
